sensor_id;sensor_type;location;lat;lon;timestamp;pressure;altitude;pressure_sealevel;temperature;humidity
50684;BME280;36654;45.042;38.994;2023-06-22T00:00:43;101079.16;;;23.31;53.11
50684;BME280;36654;45.042;38.994;2023-06-22T00:03:09;101074.00;;;23.25;53.46
50684;BME280;36654;45.042;38.994;2023-06-22T00:05:34;101088.34;;;23.27;53.43
50684;BME280;36654;45.042;38.994;2023-06-22T00:08:03;101076.09;;;23.17;52.98
50684;BME280;36654;45.042;38.994;2023-06-22T00:10:32;101073.59;;;23.11;53.30
50684;BME280;36654;45.042;38.994;2023-06-22T00:12:58;101089.72;;;23.14;53.46
50684;BME280;36654;45.042;38.994;2023-06-22T00:15:23;101089.09;;;23.06;53.72
50684;BME280;36654;45.042;38.994;2023-06-22T00:17:50;101081.50;;;22.90;54.41
50684;BME280;36654;45.042;38.994;2023-06-22T00:20:16;101082.88;;;22.77;54.33
50684;BME280;36654;45.042;38.994;2023-06-22T00:22:44;101090.53;;;22.63;55.00
50684;BME280;36654;45.042;38.994;2023-06-22T00:25:09;101100.66;;;22.56;55.12
50684;BME280;36654;45.042;38.994;2023-06-22T00:27:36;101086.56;;;22.46;54.89
50684;BME280;36654;45.042;38.994;2023-06-22T00:30:02;101084.84;;;22.44;54.91
50684;BME280;36654;45.042;38.994;2023-06-22T00:32:27;101099.91;;;22.52;54.99
50684;BME280;36654;45.042;38.994;2023-06-22T00:34:53;101089.28;;;22.46;54.58
50684;BME280;36654;45.042;38.994;2023-06-22T00:37:19;101092.69;;;22.51;54.37
50684;BME280;36654;45.042;38.994;2023-06-22T00:39:44;101094.78;;;22.43;54.83
50684;BME280;36654;45.042;38.994;2023-06-22T00:42:10;101099.91;;;22.52;54.75
50684;BME280;36654;45.042;38.994;2023-06-22T00:44:36;101110.69;;;22.52;54.40
50684;BME280;36654;45.042;38.994;2023-06-22T00:47:03;101102.63;;;22.51;54.42
50684;BME280;36654;45.042;38.994;2023-06-22T00:49:28;101055.59;;;22.30;53.85
50684;BME280;36654;45.042;38.994;2023-06-22T00:51:56;101087.31;;;22.51;53.62
50684;BME280;36654;45.042;38.994;2023-06-22T00:54:22;101090.94;;;22.50;53.62
50684;BME280;36654;45.042;38.994;2023-06-22T00:56:55;101090.94;;;22.50;53.44
50684;BME280;36654;45.042;38.994;2023-06-22T00:59:23;101101.75;;;22.50;53.23
50684;BME280;36654;45.042;38.994;2023-06-22T01:01:49;101094.50;;;22.52;53.14
50684;BME280;36654;45.042;38.994;2023-06-22T01:04:15;101081.16;;;22.46;52.88
50684;BME280;36654;45.042;38.994;2023-06-22T01:07:02;101103.31;;;22.57;52.54
50684;BME280;36654;45.042;38.994;2023-06-22T01:09:32;101101.47;;;22.59;52.60
50684;BME280;36654;45.042;38.994;2023-06-22T01:12:03;101071.31;;;22.45;52.03
50684;BME280;36654;45.042;38.994;2023-06-22T01:14:41;101099.38;;;22.68;51.77
50684;BME280;36654;45.042;38.994;2023-06-22T01:17:11;101097.63;;;22.67;51.93
50684;BME280;36654;45.042;38.994;2023-06-22T01:19:51;101110.91;;;22.73;51.83
50684;BME280;36654;45.042;38.994;2023-06-22T01:22:25;101109.94;;;22.75;51.58
50684;BME280;36654;45.042;38.994;2023-06-22T01:27:40;101119.78;;;22.76;51.93
50684;BME280;36654;45.042;38.994;2023-06-22T01:30:15;101113.50;;;22.76;51.72
50684;BME280;36654;45.042;38.994;2023-06-22T01:32:42;101114.56;;;22.72;52.49
50684;BME280;36654;45.042;38.994;2023-06-22T01:35:09;101118.06;;;22.74;52.24
50684;BME280;36654;45.042;38.994;2023-06-22T01:37:36;101118.16;;;22.72;52.51
50684;BME280;36654;45.042;38.994;2023-06-22T01:40:04;101108.44;;;22.67;52.63
50684;BME280;36654;45.042;38.994;2023-06-22T01:42:31;101112.94;;;22.66;53.03
50684;BME280;36654;45.042;38.994;2023-06-22T01:44:58;101109.50;;;22.61;53.51
50684;BME280;36654;45.042;38.994;2023-06-22T01:47:25;101122.88;;;22.66;53.54
50684;BME280;36654;45.042;38.994;2023-06-22T01:49:51;101115.69;;;22.65;53.75
50684;BME280;36654;45.042;38.994;2023-06-22T01:52:17;101130.94;;;22.67;53.94
50684;BME280;36654;45.042;38.994;2023-06-22T01:54:43;101117.78;;;22.83;53.60
50684;BME280;36654;45.042;38.994;2023-06-22T01:57:09;101120.38;;;23.14;53.21
50684;BME280;36654;45.042;38.994;2023-06-22T02:00:09;101122.81;;;23.47;52.77
50684;BME280;36654;45.042;38.994;2023-06-22T02:03:01;101127.88;;;23.81;51.78
50684;BME280;36654;45.042;38.994;2023-06-22T02:05:36;101125.75;;;24.13;50.86
50684;BME280;36654;45.042;38.994;2023-06-22T02:08:09;101124.97;;;24.33;50.33
50684;BME280;36654;45.042;38.994;2023-06-22T02:10:37;101089.69;;;24.35;49.80
50684;BME280;36654;45.042;38.994;2023-06-22T02:13:07;101133.78;;;24.84;49.44
50684;BME280;36654;45.042;38.994;2023-06-22T02:15:33;101091.16;;;24.87;48.76
50684;BME280;36654;45.042;38.994;2023-06-22T02:18:00;101138.94;;;25.32;48.10
50684;BME280;36654;45.042;38.994;2023-06-22T02:20:25;101140.09;;;25.68;47.39
50684;BME280;36654;45.042;38.994;2023-06-22T02:22:51;101137.31;;;25.90;46.80
50684;BME280;36654;45.042;38.994;2023-06-22T02:25:16;101125.66;;;26.07;46.17
50684;BME280;36654;45.042;38.994;2023-06-22T02:27:42;101132.31;;;26.37;45.63
50684;BME280;36654;45.042;38.994;2023-06-22T02:30:08;101122.84;;;26.65;44.80
50684;BME280;36654;45.042;38.994;2023-06-22T02:32:35;101124.09;;;26.94;44.04
50684;BME280;36654;45.042;38.994;2023-06-22T02:35:01;101128.31;;;27.19;43.11
50684;BME280;36654;45.042;38.994;2023-06-22T02:37:31;101157.06;;;27.42;43.32
50684;BME280;36654;45.042;38.994;2023-06-22T02:39:57;101158.66;;;27.46;42.90
50684;BME280;36654;45.042;38.994;2023-06-22T02:42:22;101161.38;;;27.63;42.52
50684;BME280;36654;45.042;38.994;2023-06-22T02:44:48;101160.31;;;27.66;42.18
50684;BME280;36654;45.042;38.994;2023-06-22T02:47:14;101154.50;;;27.39;42.66
50684;BME280;36654;45.042;38.994;2023-06-22T02:49:39;101154.22;;;27.08;43.65
50684;BME280;36654;45.042;38.994;2023-06-22T02:52:05;101154.94;;;27.12;43.60
50684;BME280;36654;45.042;38.994;2023-06-22T02:54:31;101153.06;;;27.13;43.69
50684;BME280;36654;45.042;38.994;2023-06-22T02:56:56;101149.66;;;27.09;43.79
50684;BME280;36654;45.042;38.994;2023-06-22T02:59:22;101164.84;;;27.13;43.71
50684;BME280;36654;45.042;38.994;2023-06-22T03:01:49;101149.66;;;27.09;43.89
50684;BME280;36654;45.042;38.994;2023-06-22T03:04:15;101155.25;;;27.06;44.02
50684;BME280;36654;45.042;38.994;2023-06-22T03:06:41;101149.78;;;26.88;44.29
50684;BME280;36654;45.042;38.994;2023-06-22T03:09:07;101161.34;;;26.75;44.65
50684;BME280;36654;45.042;38.994;2023-06-22T03:11:33;101123.16;;;26.59;44.89
50684;BME280;36654;45.042;38.994;2023-06-22T03:14:02;101159.84;;;26.86;44.91
50684;BME280;36654;45.042;38.994;2023-06-22T03:16:27;101156.97;;;26.89;44.46
50684;BME280;36654;45.042;38.994;2023-06-22T03:18:54;101156.31;;;26.84;44.71
50684;BME280;36654;45.042;38.994;2023-06-22T03:21:22;101156.97;;;26.89;44.54
50684;BME280;36654;45.042;38.994;2023-06-22T03:23:48;101159.53;;;26.93;44.40
50684;BME280;36654;45.042;38.994;2023-06-22T03:26:16;101167.03;;;26.87;44.61
50684;BME280;36654;45.042;38.994;2023-06-22T03:28:42;101157.78;;;26.92;44.68
50684;BME280;36654;45.042;38.994;2023-06-22T03:31:08;101165.56;;;26.99;44.27
50684;BME280;36654;45.042;38.994;2023-06-22T03:33:33;101120.31;;;26.79;44.33
50684;BME280;36654;45.042;38.994;2023-06-22T03:35:59;101150.28;;;26.97;44.32
50684;BME280;36654;45.042;38.994;2023-06-22T03:38:25;101156.59;;;26.97;44.52
50684;BME280;36654;45.042;38.994;2023-06-22T03:40:50;101157.47;;;26.98;44.53
50684;BME280;36654;45.042;38.994;2023-06-22T03:43:16;101160.81;;;27.03;44.29
50684;BME280;36654;45.042;38.994;2023-06-22T03:45:42;101157.06;;;27.24;43.97
50684;BME280;36654;45.042;38.994;2023-06-22T03:48:07;101157.69;;;27.47;43.62
50684;BME280;36654;45.042;38.994;2023-06-22T03:50:33;101158.72;;;27.62;43.20
50684;BME280;36654;45.042;38.994;2023-06-22T03:52:58;101163.41;;;27.58;42.93
50684;BME280;36654;45.042;38.994;2023-06-22T03:55:24;101157.91;;;27.60;43.17
50684;BME280;36654;45.042;38.994;2023-06-22T03:57:50;101171.44;;;27.79;43.04
50684;BME280;36654;45.042;38.994;2023-06-22T04:00:15;101174.47;;;27.72;43.00
50684;BME280;36654;45.042;38.994;2023-06-22T04:02:41;101184.94;;;27.80;43.02
50684;BME280;36654;45.042;38.994;2023-06-22T04:05:09;101177.63;;;27.82;43.10
50684;BME280;36654;45.042;38.994;2023-06-22T04:07:34;101183.28;;;27.78;42.86
50684;BME280;36654;45.042;38.994;2023-06-22T04:10:03;101186.16;;;27.74;43.11
50684;BME280;36654;45.042;38.994;2023-06-22T04:12:29;101187.28;;;27.88;43.05
50684;BME280;36654;45.042;38.994;2023-06-22T04:14:55;101173.66;;;27.88;42.97
50684;BME280;36654;45.042;38.994;2023-06-22T04:17:20;101185.50;;;28.04;42.67
50684;BME280;36654;45.042;38.994;2023-06-22T04:19:46;101185.44;;;28.06;42.82
50684;BME280;36654;45.042;38.994;2023-06-22T04:22:12;101182.81;;;28.20;42.72
50684;BME280;36654;45.042;38.994;2023-06-22T04:24:37;101183.34;;;28.27;42.48
50684;BME280;36654;45.042;38.994;2023-06-22T04:27:03;101168.69;;;28.45;41.90
50684;BME280;36654;45.042;38.994;2023-06-22T04:29:30;101191.31;;;28.79;41.67
50684;BME280;36654;45.042;38.994;2023-06-22T04:31:56;101184.09;;;28.78;40.79
50684;BME280;36654;45.042;38.994;2023-06-22T04:34:24;101185.69;;;28.82;41.25
50684;BME280;36654;45.042;38.994;2023-06-22T04:36:53;101192.16;;;28.95;40.75
50684;BME280;36654;45.042;38.994;2023-06-22T04:39:19;101189.75;;;28.91;40.54
50684;BME280;36654;45.042;38.994;2023-06-22T04:41:45;101170.28;;;28.65;40.84
50684;BME280;36654;45.042;38.994;2023-06-22T04:44:18;101200.31;;;28.81;41.48
50684;BME280;36654;45.042;38.994;2023-06-22T04:46:50;101198.81;;;28.59;41.38
50684;BME280;36654;45.042;38.994;2023-06-22T04:49:19;101196.28;;;28.39;41.95
50684;BME280;36654;45.042;38.994;2023-06-22T04:51:45;101201.94;;;28.36;42.30
50684;BME280;36654;45.042;38.994;2023-06-22T04:54:10;101163.22;;;28.13;42.40
50684;BME280;36654;45.042;38.994;2023-06-22T04:56:36;101195.09;;;28.45;42.16
50684;BME280;36654;45.042;38.994;2023-06-22T04:59:02;101193.16;;;28.63;42.13
50684;BME280;36654;45.042;38.994;2023-06-22T05:01:31;101192.91;;;28.67;42.13
50684;BME280;36654;45.042;38.994;2023-06-22T05:03:57;101194.84;;;28.81;42.13
50684;BME280;36654;45.042;38.994;2023-06-22T05:06:24;101207.84;;;29.08;41.68
50684;BME280;36654;45.042;38.994;2023-06-22T05:08:56;101204.66;;;29.31;40.81
50684;BME280;36654;45.042;38.994;2023-06-22T05:11:26;101198.94;;;29.50;40.59
50684;BME280;36654;45.042;38.994;2023-06-22T05:13:52;101189.75;;;29.67;40.24
50684;BME280;36654;45.042;38.994;2023-06-22T05:16:18;101211.28;;;30.02;39.53
50684;BME280;36654;45.042;38.994;2023-06-22T05:18:50;101208.00;;;30.25;39.04
50684;BME280;36654;45.042;38.994;2023-06-22T05:21:16;101175.72;;;30.45;38.57
50684;BME280;36654;45.042;38.994;2023-06-22T05:23:42;101209.69;;;30.84;38.05
50684;BME280;36654;45.042;38.994;2023-06-22T05:26:07;101179.50;;;30.85;37.49
50684;BME280;36654;45.042;38.994;2023-06-22T05:28:35;101209.78;;;31.09;37.11
50684;BME280;36654;45.042;38.994;2023-06-22T05:31:01;101220.00;;;31.20;37.38
50684;BME280;36654;45.042;38.994;2023-06-22T05:33:26;101213.00;;;31.43;37.31
50684;BME280;36654;45.042;38.994;2023-06-22T05:35:52;101219.31;;;31.71;36.52
50684;BME280;36654;45.042;38.994;2023-06-22T05:38:17;101191.53;;;31.63;36.46
50684;BME280;36654;45.042;38.994;2023-06-22T05:40:43;101226.38;;;32.00;36.26
50684;BME280;36654;45.042;38.994;2023-06-22T05:43:09;101206.06;;;31.90;36.35
50684;BME280;36654;45.042;38.994;2023-06-22T05:45:34;101195.28;;;31.74;36.64
50684;BME280;36654;45.042;38.994;2023-06-22T05:48:00;101171.50;;;31.75;35.95
50684;BME280;36654;45.042;38.994;2023-06-22T05:50:26;101184.00;;;31.92;36.17
50684;BME280;36654;45.042;38.994;2023-06-22T05:52:52;101192.91;;;32.21;35.67
50684;BME280;36654;45.042;38.994;2023-06-22T05:55:18;101200.31;;;32.44;35.34
50684;BME280;36654;45.042;38.994;2023-06-22T05:57:44;101216.00;;;32.42;35.34
50684;BME280;36654;45.042;38.994;2023-06-22T06:00:10;101221.63;;;32.54;35.48
50684;BME280;36654;45.042;38.994;2023-06-22T06:02:37;101213.94;;;32.59;34.82
50684;BME280;36654;45.042;38.994;2023-06-22T06:05:10;101220.84;;;32.52;34.78
50684;BME280;36654;45.042;38.994;2023-06-22T06:07:36;101216.47;;;32.49;34.72
50684;BME280;36654;45.042;38.994;2023-06-22T06:10:03;101181.28;;;32.05;35.59
50684;BME280;36654;45.042;38.994;2023-06-22T06:12:30;101207.28;;;32.12;35.69
50684;BME280;36654;45.042;38.994;2023-06-22T06:14:55;101208.25;;;32.23;35.23
50684;BME280;36654;45.042;38.994;2023-06-22T06:17:22;101224.94;;;32.33;35.36
50684;BME280;36654;45.042;38.994;2023-06-22T06:19:47;101215.28;;;32.15;35.58
50684;BME280;36654;45.042;38.994;2023-06-22T06:22:13;101193.00;;;31.81;36.21
50684;BME280;36654;45.042;38.994;2023-06-22T06:24:39;101208.34;;;31.71;36.22
50684;BME280;36654;45.042;38.994;2023-06-22T06:27:04;101228.03;;;31.50;36.98
50684;BME280;36654;45.042;38.994;2023-06-22T06:29:31;101209.75;;;31.24;37.46
50684;BME280;36654;45.042;38.994;2023-06-22T06:31:57;101205.19;;;31.10;37.82
50684;BME280;36654;45.042;38.994;2023-06-22T06:34:22;101220.75;;;31.09;38.46
50684;BME280;36654;45.042;38.994;2023-06-22T06:36:48;101172.75;;;30.62;38.19
50684;BME280;36654;45.042;38.994;2023-06-22T06:39:14;101216.94;;;30.56;38.25
50684;BME280;36654;45.042;38.994;2023-06-22T06:41:41;101218.34;;;30.35;38.93
50684;BME280;36654;45.042;38.994;2023-06-22T06:44:07;101239.22;;;30.21;39.39
50684;BME280;36654;45.042;38.994;2023-06-22T06:46:32;101236.25;;;30.10;39.41
50684;BME280;36654;45.042;38.994;2023-06-22T06:48:58;101245.81;;;30.03;39.41
50684;BME280;36654;45.042;38.994;2023-06-22T06:51:24;101241.50;;;29.84;39.52
50684;BME280;36654;45.042;38.994;2023-06-22T06:53:49;101258.28;;;29.62;40.58
50684;BME280;36654;45.042;38.994;2023-06-22T06:56:15;101237.22;;;29.34;41.49
50684;BME280;36654;45.042;38.994;2023-06-22T06:58:41;101252.31;;;29.26;41.90
50684;BME280;36654;45.042;38.994;2023-06-22T07:01:08;101245.22;;;29.37;42.21
50684;BME280;36654;45.042;38.994;2023-06-22T07:03:34;101248.63;;;29.57;41.88
50684;BME280;36654;45.042;38.994;2023-06-22T07:06:00;101260.66;;;29.38;40.67
50684;BME280;36654;45.042;38.994;2023-06-22T07:08:25;101254.38;;;29.06;41.72
50684;BME280;36654;45.042;38.994;2023-06-22T07:10:54;101247.03;;;28.91;42.55
50684;BME280;36654;45.042;38.994;2023-06-22T07:13:20;101268.75;;;28.92;42.40
50684;BME280;36654;45.042;38.994;2023-06-22T07:15:45;101243.78;;;28.68;43.00
50684;BME280;36654;45.042;38.994;2023-06-22T07:18:11;101256.25;;;28.56;43.30
50684;BME280;36654;45.042;38.994;2023-06-22T07:20:36;101263.94;;;28.66;43.64
50684;BME280;36654;45.042;38.994;2023-06-22T07:23:02;101277.22;;;28.72;43.34
50684;BME280;36654;45.042;38.994;2023-06-22T07:25:28;101287.56;;;28.65;41.95
50684;BME280;36654;45.042;38.994;2023-06-22T07:30:23;101263.66;;;28.37;43.14
50684;BME280;36654;45.042;38.994;2023-06-22T07:32:48;101274.38;;;28.57;42.96
50684;BME280;36654;45.042;38.994;2023-06-22T07:35:14;101280.16;;;28.51;42.29
50684;BME280;36654;45.042;38.994;2023-06-22T07:37:42;101274.16;;;28.45;41.77
50684;BME280;36654;45.042;38.994;2023-06-22T07:40:08;101260.47;;;28.29;42.05
50684;BME280;36654;45.042;38.994;2023-06-22T07:42:35;101276.59;;;28.33;41.54
50684;BME280;36654;45.042;38.994;2023-06-22T07:45:01;101266.88;;;28.28;40.82
50684;BME280;36654;45.042;38.994;2023-06-22T07:47:27;101282.75;;;28.37;39.86
50684;BME280;36654;45.042;38.994;2023-06-22T07:49:58;101262.84;;;28.35;40.39
50684;BME280;36654;45.042;38.994;2023-06-22T07:52:26;101266.72;;;28.48;39.76
50684;BME280;36654;45.042;38.994;2023-06-22T07:54:52;101281.75;;;28.55;40.16
50684;BME280;36654;45.042;38.994;2023-06-22T07:57:18;101268.31;;;28.35;40.48
50684;BME280;36654;45.042;38.994;2023-06-22T07:59:44;101278.13;;;28.22;40.10
50684;BME280;36654;45.042;38.994;2023-06-22T08:02:10;101269.16;;;28.20;40.09
50684;BME280;36654;45.042;38.994;2023-06-22T08:04:35;101294.78;;;28.15;39.52
50684;BME280;36654;45.042;38.994;2023-06-22T08:07:01;101269.97;;;28.04;39.92
50684;BME280;36654;45.042;38.994;2023-06-22T08:09:33;101265.31;;;28.24;39.53
50684;BME280;36654;45.042;38.994;2023-06-22T08:11:59;101270.78;;;28.39;38.60
50684;BME280;36654;45.042;38.994;2023-06-22T08:14:26;101280.81;;;28.39;38.38
50684;BME280;36654;45.042;38.994;2023-06-22T08:16:52;101266.38;;;28.37;38.98
50684;BME280;36654;45.042;38.994;2023-06-22T08:19:17;101279.81;;;28.57;38.43
50684;BME280;36654;45.042;38.994;2023-06-22T08:21:43;101253.22;;;28.45;37.69
50684;BME280;36654;45.042;38.994;2023-06-22T08:24:09;101282.66;;;28.56;37.55
50684;BME280;36654;45.042;38.994;2023-06-22T08:26:34;101286.84;;;28.46;36.33
50684;BME280;36654;45.042;38.994;2023-06-22T08:29:03;101295.56;;;28.35;36.06
50684;BME280;36654;45.042;38.994;2023-06-22T08:31:29;101287.91;;;28.26;36.11
50684;BME280;36654;45.042;38.994;2023-06-22T08:33:55;101281.13;;;28.33;36.36
50684;BME280;36654;45.042;38.994;2023-06-22T08:36:21;101277.09;;;28.40;36.39
50684;BME280;36654;45.042;38.994;2023-06-22T08:38:46;101282.28;;;28.46;35.76
50684;BME280;36654;45.042;38.994;2023-06-22T08:41:19;101294.75;;;28.50;36.22
50684;BME280;36654;45.042;38.994;2023-06-22T08:43:46;101276.47;;;28.52;35.98
50684;BME280;36654;45.042;38.994;2023-06-22T08:46:11;101235.09;;;28.44;36.34
50684;BME280;36654;45.042;38.994;2023-06-22T08:48:38;101300.34;;;28.65;36.02
50684;BME280;36654;45.042;38.994;2023-06-22T08:51:04;101283.84;;;28.50;35.81
50684;BME280;36654;45.042;38.994;2023-06-22T08:53:30;101287.72;;;28.46;36.01
50684;BME280;36654;45.042;38.994;2023-06-22T08:55:55;101291.41;;;28.45;36.11
50684;BME280;36654;45.042;38.994;2023-06-22T08:58:21;101305.53;;;28.36;35.81
50684;BME280;36654;45.042;38.994;2023-06-22T09:00:49;101270.41;;;28.30;35.77
50684;BME280;36654;45.042;38.994;2023-06-22T09:03:15;101291.41;;;28.45;35.89
50684;BME280;36654;45.042;38.994;2023-06-22T09:05:41;101261.09;;;28.34;35.42
50684;BME280;36654;45.042;38.994;2023-06-22T09:08:07;101292.53;;;28.41;35.29
50684;BME280;36654;45.042;38.994;2023-06-22T09:10:33;101289.47;;;28.30;35.61
50684;BME280;36654;45.042;38.994;2023-06-22T09:12:58;101310.00;;;28.37;35.18
50684;BME280;36654;45.042;38.994;2023-06-22T09:15:24;101300.31;;;28.31;35.10
50684;BME280;36654;45.042;38.994;2023-06-22T09:17:50;101255.63;;;28.01;35.12
50684;BME280;36654;45.042;38.994;2023-06-22T09:20:15;101290.63;;;28.26;35.11
50684;BME280;36654;45.042;38.994;2023-06-22T09:22:41;101238.25;;;28.03;35.60
50684;BME280;36654;45.042;38.994;2023-06-22T09:25:07;101283.72;;;28.36;35.38
50684;BME280;36654;45.042;38.994;2023-06-22T09:27:33;101312.03;;;28.51;34.69
50684;BME280;36654;45.042;38.994;2023-06-22T09:29:58;101272.19;;;28.31;34.85
50684;BME280;36654;45.042;38.994;2023-06-22T09:32:25;101292.34;;;28.44;34.72
50684;BME280;36654;45.042;38.994;2023-06-22T09:34:53;101281.13;;;28.33;34.86
50684;BME280;36654;45.042;38.994;2023-06-22T09:37:19;101277.63;;;28.31;34.85
50684;BME280;36654;45.042;38.994;2023-06-22T09:39:45;101262.66;;;28.22;34.88
50684;BME280;36654;45.042;38.994;2023-06-22T09:42:10;101273.25;;;28.44;34.71
50684;BME280;36654;45.042;38.994;2023-06-22T09:44:36;101275.41;;;28.55;33.96
50684;BME280;36654;45.042;38.994;2023-06-22T09:47:02;101260.75;;;28.40;33.58
50684;BME280;36654;45.042;38.994;2023-06-22T09:49:28;101239.91;;;28.39;33.20
50684;BME280;36654;45.042;38.994;2023-06-22T09:51:53;101276.66;;;28.49;33.42
50684;BME280;36654;45.042;38.994;2023-06-22T09:54:19;101280.81;;;28.39;33.87
50684;BME280;36654;45.042;38.994;2023-06-22T09:56:45;101284.47;;;28.38;33.73
50684;BME280;36654;45.042;38.994;2023-06-22T09:59:10;101276.47;;;28.35;33.54
50684;BME280;36654;45.042;38.994;2023-06-22T10:01:36;101267.84;;;28.27;33.53
50684;BME280;36654;45.042;38.994;2023-06-22T10:04:02;101242.25;;;28.13;33.85
50684;BME280;36654;45.042;38.994;2023-06-22T10:06:28;101295.25;;;28.41;33.73
50684;BME280;36654;45.042;38.994;2023-06-22T10:08:53;101283.97;;;28.31;33.85
50684;BME280;36654;45.042;38.994;2023-06-22T10:11:19;101271.81;;;28.21;34.24
50684;BME280;36654;45.042;38.994;2023-06-22T10:13:44;101260.53;;;28.27;34.73
50684;BME280;36654;45.042;38.994;2023-06-22T10:16:10;101250.03;;;28.37;34.48
50684;BME280;36654;45.042;38.994;2023-06-22T10:18:36;101273.25;;;28.44;33.91
50684;BME280;36654;45.042;38.994;2023-06-22T10:21:02;101274.00;;;28.48;33.64
50684;BME280;36654;45.042;38.994;2023-06-22T10:23:27;101291.09;;;28.34;33.75
50684;BME280;36654;45.042;38.994;2023-06-22T10:25:53;101277.47;;;28.34;33.96
50684;BME280;36654;45.042;38.994;2023-06-22T10:28:19;101288.00;;;28.40;34.26
50684;BME280;36654;45.042;38.994;2023-06-22T10:30:44;101294.44;;;28.39;33.98
50684;BME280;36654;45.042;38.994;2023-06-22T10:33:11;101285.53;;;28.35;33.73
50684;BME280;36654;45.042;38.994;2023-06-22T10:35:37;101287.22;;;28.38;33.69
50684;BME280;36654;45.042;38.994;2023-06-22T10:38:03;101288.81;;;28.42;34.18
50684;BME280;36654;45.042;38.994;2023-06-22T10:40:28;101260.47;;;28.46;34.04
50684;BME280;36654;45.042;38.994;2023-06-22T10:42:54;101279.13;;;28.54;33.72
50684;BME280;36654;45.042;38.994;2023-06-22T10:45:20;101302.19;;;28.64;33.16
50684;BME280;36654;45.042;38.994;2023-06-22T10:47:46;101283.78;;;28.52;32.22
50684;BME280;36654;45.042;38.994;2023-06-22T10:50:12;101280.81;;;28.39;33.30
50684;BME280;36654;45.042;38.994;2023-06-22T10:52:37;101292.03;;;28.33;33.47
50684;BME280;36654;45.042;38.994;2023-06-22T10:55:04;101282.97;;;27.99;33.04
50684;BME280;36654;45.042;38.994;2023-06-22T10:57:30;101292.00;;;28.17;33.13
50684;BME280;36654;45.042;38.994;2023-06-22T10:59:55;101248.75;;;28.11;33.26
50684;BME280;36654;45.042;38.994;2023-06-22T11:02:21;101290.34;;;28.30;33.09
50684;BME280;36654;45.042;38.994;2023-06-22T11:04:47;101291.13;;;28.16;32.62
50684;BME280;36654;45.042;38.994;2023-06-22T11:07:13;101266.28;;;27.88;32.22
50684;BME280;36654;45.042;38.994;2023-06-22T11:09:38;101277.34;;;28.02;32.24
50684;BME280;36654;45.042;38.994;2023-06-22T11:12:05;101282.31;;;28.11;32.21
50684;BME280;36654;45.042;38.994;2023-06-22T11:14:31;101289.50;;;28.12;32.33
50684;BME280;36654;45.042;38.994;2023-06-22T11:16:59;101302.34;;;28.10;32.03
50684;BME280;36654;45.042;38.994;2023-06-22T11:19:27;101270.16;;;28.01;32.80
50684;BME280;36654;45.042;38.994;2023-06-22T11:21:53;101270.94;;;28.03;33.33
50684;BME280;36654;45.042;38.994;2023-06-22T11:24:19;101278.63;;;28.12;33.37
50684;BME280;36654;45.042;38.994;2023-06-22T11:26:44;101250.03;;;28.04;33.09
50684;BME280;36654;45.042;38.994;2023-06-22T11:29:10;101289.41;;;28.31;33.02
50684;BME280;36654;45.042;38.994;2023-06-22T11:31:36;101235.66;;;28.00;32.79
50684;BME280;36654;45.042;38.994;2023-06-22T11:34:02;101278.94;;;28.06;32.78
50684;BME280;36654;45.042;38.994;2023-06-22T11:36:29;101275.38;;;27.88;33.36
50684;BME280;36654;45.042;38.994;2023-06-22T11:38:55;101240.00;;;27.69;33.41
50684;BME280;36654;45.042;38.994;2023-06-22T11:41:20;101296.13;;;27.91;33.68
50684;BME280;36654;45.042;38.994;2023-06-22T11:43:46;101290.69;;;27.91;33.16
50684;BME280;36654;45.042;38.994;2023-06-22T11:46:11;101278.00;;;27.90;32.80
50684;BME280;36654;45.042;38.994;2023-06-22T11:48:37;101282.97;;;27.99;32.24
50684;BME280;36654;45.042;38.994;2023-06-22T11:51:03;101297.41;;;28.01;31.11
50684;BME280;36654;45.042;38.994;2023-06-22T11:53:29;101262.38;;;27.93;30.54
50684;BME280;36654;45.042;38.994;2023-06-22T11:55:55;101273.50;;;28.06;30.91
50684;BME280;36654;45.042;38.994;2023-06-22T11:58:21;101279.50;;;28.13;31.51
50684;BME280;36654;45.042;38.994;2023-06-22T12:00:48;101273.50;;;28.06;32.03
50684;BME280;36654;45.042;38.994;2023-06-22T12:03:13;101276.41;;;28.03;32.08
50684;BME280;36654;45.042;38.994;2023-06-22T12:05:40;101290.03;;;28.03;32.00
50684;BME280;36654;45.042;38.994;2023-06-22T12:08:06;101273.69;;;28.03;32.09
50684;BME280;36654;45.042;38.994;2023-06-22T12:10:32;101221.22;;;27.81;32.48
50684;BME280;36654;45.042;38.994;2023-06-22T12:12:57;101266.38;;;28.04;32.19
50684;BME280;36654;45.042;38.994;2023-06-22T12:15:25;101269.97;;;28.04;32.18
50684;BME280;36654;45.042;38.994;2023-06-22T12:17:51;101241.63;;;27.91;31.89
50684;BME280;36654;45.042;38.994;2023-06-22T12:20:17;101267.88;;;28.09;31.71
50684;BME280;36654;45.042;38.994;2023-06-22T12:22:43;101273.50;;;28.06;31.29
50684;BME280;36654;45.042;38.994;2023-06-22T12:25:09;101281.91;;;28.02;31.09
50684;BME280;36654;45.042;38.994;2023-06-22T12:27:35;101265.53;;;27.86;31.47
50684;BME280;36654;45.042;38.994;2023-06-22T12:30:01;101289.06;;;27.87;31.51
50684;BME280;36654;45.042;38.994;2023-06-22T12:32:27;101274.81;;;27.82;31.44
50684;BME280;36654;45.042;38.994;2023-06-22T12:34:53;101285.19;;;27.73;31.59
50684;BME280;36654;45.042;38.994;2023-06-22T12:37:19;101277.66;;;27.61;32.02
50684;BME280;36654;45.042;38.994;2023-06-22T12:39:45;101272.44;;;27.57;32.05
50684;BME280;36654;45.042;38.994;2023-06-22T12:42:10;101264.34;;;27.55;31.63